Time;durP1;ratioP1;P1;durP2;ratioP2;P2;SDS_P1;SDS_P2;PMS_P1;PMS_P2;Temp;Humidity;BMP_temperature;BMP_pressure;BME280_temperature;BME280_humidity;BME280_pressure;Samples;Min_cycle;Max_cycle;Signal;HPM_P1;HPM_P2
2021/04/30 00:02:01;;;;;;;35.53;22.38;;;8.30;99.90;;;;;;5114078;28;20039;-75
2021/04/30 00:04:27;;;;;;;31.80;22.20;;;8.30;99.90;;;;;;5113196;28;20139;-75
2021/04/30 00:06:53;;;;;;;31.90;22.40;;;8.30;99.90;;;;;;5078060;28;20052;-74
2021/04/30 00:09:18;;;;;;;33.10;22.25;;;8.30;99.90;;;;;;5113495;28;20487;-75
2021/04/30 00:11:44;;;;;;;33.35;21.60;;;8.30;99.90;;;;;;5076405;28;20040;-75
2021/04/30 00:14:10;;;;;;;28.83;21.60;;;8.20;99.90;;;;;;5095149;28;20046;-75
2021/04/30 00:16:39;;;;;;;34.00;22.50;;;8.20;99.90;;;;;;5096045;28;20047;-75
2021/04/30 00:19:06;;;;;;;29.83;23.10;;;8.30;99.90;;;;;;5079134;28;20084;-75
2021/04/30 00:21:32;;;;;;;29.70;22.15;;;8.30;99.90;;;;;;5113614;28;20443;-74
2021/04/30 00:24:01;;;;;;;32.25;22.92;;;8.30;99.90;;;;;;5111972;27;20106;-74
2021/04/30 00:26:27;;;;;;;29.77;22.23;;;8.30;99.90;;;;;;5113058;28;20040;-74
2021/04/30 00:28:54;;;;;;;32.88;21.90;;;8.30;99.90;;;;;;5095440;28;20036;-74
2021/04/30 00:31:20;;;;;;;32.15;22.42;;;8.30;99.90;;;;;;5095604;28;20096;-74
2021/04/30 00:33:46;;;;;;;33.25;21.73;;;8.30;99.90;;;;;;5112733;28;20042;-74
2021/04/30 00:36:12;;;;;;;33.65;22.92;;;8.30;99.90;;;;;;5061311;28;20110;-74
2021/04/30 00:38:38;;;;;;;34.85;22.52;;;8.40;99.90;;;;;;5095615;28;20539;-74
2021/04/30 00:41:04;;;;;;;35.35;22.95;;;8.40;99.90;;;;;;5093979;28;20035;-74
2021/04/30 00:43:30;;;;;;;31.73;21.77;;;8.40;99.90;;;;;;5110274;28;20031;-74
2021/04/30 00:45:55;;;;;;;36.30;23.23;;;8.40;99.90;;;;;;5113359;28;20031;-75
2021/04/30 00:48:22;;;;;;;31.20;23.00;;;8.40;99.90;;;;;;5095032;28;20040;-74
2021/04/30 00:50:49;;;;;;;31.15;22.63;;;8.50;99.90;;;;;;5112758;28;20175;-74
2021/04/30 00:53:16;;;;;;;28.83;21.52;;;8.50;99.90;;;;;;5113082;28;20114;-75
2021/04/30 00:55:41;;;;;;;31.05;23.10;;;8.40;99.90;;;;;;5095978;28;20032;-75
2021/04/30 00:58:07;;;;;;;32.80;22.67;;;8.40;99.90;;;;;;5112549;28;20042;-74
2021/04/30 01:00:35;;;;;;;37.83;22.73;;;8.60;99.90;;;;;;5097713;28;20059;-74
2021/04/30 01:03:05;;;;;;;24.88;20.48;;;8.40;99.90;;;;;;5080883;28;20043;-74
2021/04/30 01:05:31;;;;;;;32.22;22.88;;;8.40;99.90;;;;;;5095070;28;20042;-74
2021/04/30 01:07:57;;;;;;;34.10;22.67;;;8.40;99.90;;;;;;5112160;28;20035;-75
2021/04/30 01:10:23;;;;;;;33.50;21.95;;;8.40;99.90;;;;;;5093061;28;20076;-75
2021/04/30 01:12:50;;;;;;;32.40;22.05;;;8.50;99.90;;;;;;5090388;28;20042;-74
2021/04/30 01:15:17;;;;;;;32.60;22.15;;;8.50;99.90;;;;;;5112645;28;20472;-74
2021/04/30 01:17:43;;;;;;;32.28;22.30;;;8.50;99.90;;;;;;5094908;28;20062;-75
2021/04/30 01:20:11;;;;;;;33.22;22.48;;;8.50;99.90;;;;;;5094695;28;20039;-75
2021/04/30 01:22:45;;;;;;;28.45;20.70;;;8.50;99.90;;;;;;5112561;28;20415;-74
2021/04/30 01:25:15;;;;;;;28.77;20.83;;;8.40;99.90;;;;;;5112801;28;20514;-74
2021/04/30 01:27:41;;;;;;;29.10;20.75;;;8.40;99.90;;;;;;5092922;28;20035;-74
2021/04/30 01:30:16;;;;;;;31.15;20.77;;;8.50;99.90;;;;;;5112284;28;20036;-73
2021/04/30 01:32:42;;;;;;;30.38;20.75;;;8.40;99.90;;;;;;5094316;28;20402;-74
2021/04/30 01:35:10;;;;;;;26.92;21.02;;;8.60;99.90;;;;;;5112732;28;20043;-79
2021/04/30 01:37:36;;;;;;;27.70;20.35;;;8.50;99.90;;;;;;5112308;28;20040;-79
2021/04/30 01:40:11;;;;;;;29.73;20.85;;;8.40;99.90;;;;;;5096257;28;20035;-79
2021/04/30 01:42:36;;;;;;;28.98;21.70;;;8.50;99.90;;;;;;5086779;28;20044;-79
2021/04/30 01:45:03;;;;;;;26.92;19.05;;;8.40;99.90;;;;;;5111306;27;20030;-79
2021/04/30 01:47:28;;;;;;;25.33;19.05;;;8.40;99.90;;;;;;5112626;28;20039;-79
2021/04/30 01:49:54;;;;;;;27.92;19.63;;;8.70;99.90;;;;;;5111707;28;20119;-79
2021/04/30 01:52:21;;;;;;;27.80;20.25;;;8.70;99.90;;;;;;5095246;28;20036;-79
2021/04/30 01:54:48;;;;;;;27.63;20.15;;;8.30;99.90;;;;;;5094299;28;20635;-79
2021/04/30 01:57:14;;;;;;;29.05;20.50;;;8.30;99.90;;;;;;5112382;28;20040;-79
2021/04/30 01:59:40;;;;;;;27.65;19.83;;;8.30;99.90;;;;;;5112451;28;20042;-79
2021/04/30 02:02:06;;;;;;;27.98;20.42;;;8.30;99.90;;;;;;5100837;28;20028;-79
2021/04/30 02:04:36;;;;;;;31.33;19.67;;;8.30;99.90;;;;;;5112115;28;20111;-79
2021/04/30 02:07:02;;;;;;;32.08;20.98;;;8.30;99.90;;;;;;5112179;28;20476;-79
2021/04/30 02:09:28;;;;;;;31.08;20.10;;;8.30;99.90;;;;;;5112148;28;20028;-79
2021/04/30 02:11:54;;;;;;;28.42;20.30;;;8.30;99.90;;;;;;5094053;28;20106;-79
2021/04/30 02:14:19;;;;;;;32.58;21.42;;;8.30;99.90;;;;;;5094003;28;20403;-79
2021/04/30 02:16:45;;;;;;;29.70;19.65;;;8.30;99.90;;;;;;5093129;28;20377;-79
2021/04/30 02:19:11;;;;;;;29.85;20.83;;;8.30;99.90;;;;;;5112810;28;20028;-78
2021/04/30 02:21:37;;;;;;;27.17;19.88;;;8.40;99.90;;;;;;5115885;28;20160;-81
2021/04/30 02:24:03;;;;;;;34.80;21.75;;;8.30;99.90;;;;;;5096214;28;20407;-81
2021/04/30 02:26:29;;;;;;;28.58;21.02;;;8.30;99.90;;;;;;5096818;28;20027;-81
2021/04/30 02:28:57;;;;;;;33.97;22.75;;;8.30;99.90;;;;;;5115662;28;20032;-81
2021/04/30 02:31:23;;;;;;;32.42;22.48;;;8.30;99.90;;;;;;5105943;28;20031;-81
2021/04/30 02:33:49;;;;;;;28.98;22.48;;;8.30;99.90;;;;;;5115761;28;20031;-81
2021/04/30 02:36:14;;;;;;;36.17;22.77;;;8.30;99.90;;;;;;5114340;28;20030;-81
2021/04/30 02:38:40;;;;;;;29.80;21.88;;;8.50;99.90;;;;;;5097686;28;20035;-81
2021/04/30 02:41:06;;;;;;;32.97;21.85;;;8.30;99.90;;;;;;5097325;28;20043;-78
2021/04/30 02:43:32;;;;;;;30.05;22.73;;;8.30;99.90;;;;;;5098233;28;20032;-78
2021/04/30 02:46:00;;;;;;;30.77;21.55;;;8.30;99.90;;;;;;5115501;28;20036;-74
2021/04/30 02:48:30;;;;;;;27.52;20.35;;;8.30;99.90;;;;;;5115396;28;20556;-73
2021/04/30 02:50:58;;;;;;;30.83;21.42;;;8.40;99.90;;;;;;5115517;28;20411;-73
2021/04/30 02:53:24;;;;;;;28.00;19.45;;;8.40;99.90;;;;;;5095836;28;20038;-73
2021/04/30 02:55:51;;;;;;;39.55;20.23;;;8.30;99.90;;;;;;5115295;28;20061;-73
2021/04/30 02:58:17;;;;;;;34.53;20.48;;;8.50;99.90;;;;;;5115448;28;20057;-73
2021/04/30 03:00:43;;;;;;;30.63;20.30;;;8.40;99.90;;;;;;5115034;28;20107;-73
2021/04/30 03:03:09;;;;;;;27.83;19.30;;;8.40;99.90;;;;;;5115329;28;20131;-73
2021/04/30 03:05:35;;;;;;;36.38;21.45;;;8.40;99.90;;;;;;5115310;28;20077;-73
2021/04/30 03:08:01;;;;;;;38.60;20.58;;;8.40;99.90;;;;;;5097012;28;20044;-73
2021/04/30 03:10:28;;;;;;;33.60;18.50;;;8.80;99.90;;;;;;5113236;28;20073;-73
2021/04/30 03:12:54;;;;;;;32.15;19.65;;;8.40;99.90;;;;;;5115177;28;20502;-73
2021/04/30 03:15:20;;;;;;;36.05;19.30;;;8.70;99.90;;;;;;5114586;28;20027;-73
2021/04/30 03:17:46;;;;;;;39.25;18.33;;;8.40;99.90;;;;;;5115018;28;20046;-73
2021/04/30 03:20:14;;;;;;;32.45;17.23;;;8.40;99.90;;;;;;5114824;28;20074;-73
2021/04/30 03:22:40;;;;;;;30.38;17.08;;;8.40;99.90;;;;;;5096888;28;20039;-74
2021/04/30 03:25:07;;;;;;;30.55;17.08;;;8.40;99.90;;;;;;5094876;28;20032;-73
2021/04/30 03:27:33;;;;;;;37.17;17.75;;;8.30;99.90;;;;;;5113532;28;20039;-73
2021/04/30 03:29:59;;;;;;;34.47;17.90;;;8.30;99.90;;;;;;5098351;28;20033;-74
2021/04/30 03:32:24;;;;;;;30.30;16.33;;;8.30;99.90;;;;;;5100789;28;20484;-73
2021/04/30 03:34:54;;;;;;;33.47;17.48;;;8.40;99.90;;;;;;5082875;28;20044;-72
2021/04/30 03:37:20;;;;;;;36.40;16.92;;;8.40;99.90;;;;;;5097595;28;20036;-72
2021/04/30 03:39:46;;;;;;;36.63;16.58;;;8.50;99.90;;;;;;5102324;27;20027;-72
2021/04/30 03:42:12;;;;;;;39.45;16.08;;;8.60;99.90;;;;;;5106655;28;20043;-72
2021/04/30 03:44:38;;;;;;;35.15;15.43;;;8.40;99.90;;;;;;5100523;28;20099;-72
2021/04/30 03:47:03;;;;;;;34.53;16.70;;;8.40;99.90;;;;;;5098031;28;20044;-73
2021/04/30 03:49:29;;;;;;;37.90;16.77;;;8.40;99.90;;;;;;5085891;28;20506;-74
2021/04/30 03:51:55;;;;;;;30.02;15.95;;;8.50;99.90;;;;;;5081683;28;20039;-74
2021/04/30 03:54:21;;;;;;;42.85;17.33;;;8.60;99.90;;;;;;5083861;28;20456;-74
2021/04/30 03:56:47;;;;;;;37.40;16.30;;;8.50;99.90;;;;;;5106804;28;20062;-72
2021/04/30 03:59:13;;;;;;;37.67;16.63;;;8.50;99.90;;;;;;5106041;28;20480;-72
2021/04/30 04:01:39;;;;;;;34.92;16.33;;;8.80;99.90;;;;;;5082124;28;20034;-74
2021/04/30 04:04:05;;;;;;;40.28;16.25;;;8.40;99.90;;;;;;5097425;28;20084;-74
2021/04/30 04:06:31;;;;;;;34.67;15.98;;;8.50;99.90;;;;;;5097943;28;20476;-75
2021/04/30 04:08:59;;;;;;;34.83;16.23;;;8.40;99.90;;;;;;5105784;28;20036;-74
2021/04/30 04:11:25;;;;;;;31.88;15.77;;;8.50;99.90;;;;;;5079030;28;20036;-74
2021/04/30 04:13:53;;;;;;;36.83;16.13;;;8.50;99.90;;;;;;5081709;28;20039;-75
2021/04/30 04:16:19;;;;;;;31.13;16.20;;;8.50;99.90;;;;;;5084372;28;20547;-75
2021/04/30 04:18:44;;;;;;;31.85;16.77;;;8.50;99.90;;;;;;5092118;28;20119;-74
2021/04/30 04:21:10;;;;;;;35.35;15.18;;;8.50;99.90;;;;;;5113298;28;20098;-74
2021/04/30 04:23:36;;;;;;;44.35;17.17;;;8.50;99.90;;;;;;5112605;28;20158;-74
2021/04/30 04:26:02;;;;;;;32.70;15.73;;;8.60;99.90;;;;;;5113486;28;20036;-74
2021/04/30 04:28:27;;;;;;;30.92;14.93;;;8.50;99.90;;;;;;5111336;28;20134;-75
2021/04/30 04:30:55;;;;;;;35.67;14.90;;;8.50;99.90;;;;;;5113254;28;20035;-74
2021/04/30 04:33:21;;;;;;;37.15;15.95;;;8.50;99.90;;;;;;5113347;28;20032;-75
2021/04/30 04:35:47;;;;;;;32.17;14.57;;;8.50;99.90;;;;;;5095411;28;20044;-75
2021/04/30 04:38:12;;;;;;;30.77;14.32;;;8.50;99.90;;;;;;5113114;28;20035;-75
2021/04/30 04:40:38;;;;;;;33.38;14.18;;;8.60;99.90;;;;;;5095145;28;20524;-75
2021/04/30 04:43:04;;;;;;;36.65;14.88;;;8.60;99.90;;;;;;5074441;28;20171;-75
2021/04/30 04:45:30;;;;;;;26.63;14.23;;;8.70;99.90;;;;;;5103708;28;20039;-73
2021/04/30 04:47:56;;;;;;;30.55;14.05;;;8.60;99.90;;;;;;5094122;28;20385;-73
2021/04/30 04:50:22;;;;;;;35.60;14.63;;;8.60;99.90;;;;;;5113058;28;20041;-73
2021/04/30 04:52:50;;;;;;;24.80;13.75;;;8.60;99.90;;;;;;5113091;28;20042;-73
2021/04/30 04:55:17;;;;;;;28.88;14.05;;;8.70;99.90;;;;;;5082519;28;20398;-73
2021/04/30 04:57:44;;;;;;;33.40;15.02;;;8.60;99.90;;;;;;5085218;28;20056;-79
2021/04/30 05:00:11;;;;;;;30.50;13.85;;;8.60;99.90;;;;;;5094894;28;20043;-79
2021/04/30 05:02:38;;;;;;;33.65;13.73;;;8.70;99.90;;;;;;5111784;28;20111;-79
2021/04/30 05:05:05;;;;;;;30.27;14.40;;;8.60;99.90;;;;;;5094694;28;20498;-79
2021/04/30 05:07:31;;;;;;;26.17;13.50;;;8.70;99.90;;;;;;5078220;28;20406;-79
2021/04/30 05:09:57;;;;;;;33.53;14.52;;;8.80;99.90;;;;;;5094810;28;20040;-79
2021/04/30 05:12:23;;;;;;;39.10;14.63;;;8.70;99.90;;;;;;5077709;28;20081;-79
2021/04/30 05:14:49;;;;;;;39.13;16.27;;;8.80;99.90;;;;;;5112618;28;20040;-79
2021/04/30 05:17:14;;;;;;;31.52;14.65;;;8.70;99.90;;;;;;5093276;28;20100;-80
2021/04/30 05:19:40;;;;;;;29.50;13.52;;;8.80;99.90;;;;;;5094304;28;20107;-81
2021/04/30 05:22:10;;;;;;;32.75;14.40;;;8.70;99.90;;;;;;5112958;28;20039;-81
2021/04/30 05:24:36;;;;;;;38.30;14.63;;;8.80;99.90;;;;;;5094811;28;20383;-81
2021/04/30 05:27:07;;;;;;;43.13;13.95;;;8.70;99.90;;;;;;5094599;28;20084;-81
2021/04/30 05:29:34;;;;;;;38.28;14.15;;;8.80;99.90;;;;;;5112294;28;20051;-81
2021/04/30 05:32:00;;;;;;;29.33;12.23;;;8.80;99.90;;;;;;5104863;28;20043;-81
2021/04/30 05:34:26;;;;;;;34.35;13.75;;;9.10;99.90;;;;;;5110947;28;20024;-81
2021/04/30 05:37:12;;;;;;;42.58;14.13;;;8.80;99.90;;;;;;5114297;28;20040;-80
2021/04/30 05:39:38;;;;;;;37.33;14.35;;;8.80;99.90;;;;;;5112661;28;20054;-79
2021/04/30 05:42:04;;;;;;;37.78;14.77;;;8.80;99.90;;;;;;5094547;28;20039;-79
2021/04/30 05:44:31;;;;;;;33.80;13.93;;;8.80;99.90;;;;;;5077193;28;20528;-80
2021/04/30 05:46:56;;;;;;;38.42;14.30;;;8.80;99.90;;;;;;5112319;28;20395;-74
2021/04/30 05:49:22;;;;;;;40.40;14.20;;;8.90;99.90;;;;;;5111519;28;20031;-78
2021/04/30 05:51:48;;;;;;;33.15;14.27;;;8.90;99.90;;;;;;5105012;28;20039;-79
2021/04/30 05:54:14;;;;;;;30.98;13.57;;;9.10;99.90;;;;;;5087831;28;20066;-80
2021/04/30 05:56:43;;;;;;;39.20;14.98;;;8.90;99.90;;;;;;5098016;28;20044;-75
2021/04/30 05:59:12;;;;;;;36.83;14.15;;;9.10;99.90;;;;;;5098130;28;20489;-74
2021/04/30 06:01:40;;;;;;;37.42;13.88;;;8.90;99.90;;;;;;5116044;28;20092;-74
2021/04/30 06:04:06;;;;;;;38.70;13.43;;;8.90;99.90;;;;;;5115963;28;20055;-74
2021/04/30 06:06:32;;;;;;;37.20;14.15;;;9.30;99.90;;;;;;5095972;28;20454;-75
2021/04/30 06:08:58;;;;;;;37.45;14.77;;;9.00;99.90;;;;;;5097340;28;20031;-76
2021/04/30 06:11:24;;;;;;;41.92;13.90;;;9.00;99.90;;;;;;5098262;28;20407;-76
2021/04/30 06:13:50;;;;;;;35.50;13.35;;;9.10;99.90;;;;;;5081269;28;20040;-82
2021/04/30 06:16:18;;;;;;;35.00;14.50;;;9.00;99.90;;;;;;5097824;28;20039;-75
2021/04/30 06:18:44;;;;;;;36.22;14.65;;;9.00;99.90;;;;;;5115433;28;20035;-75
2021/04/30 06:21:10;;;;;;;41.88;15.43;;;9.10;99.90;;;;;;5103934;28;20052;-75
2021/04/30 06:23:36;;;;;;;40.90;14.27;;;9.10;99.90;;;;;;5097015;28;20028;-75
2021/04/30 06:26:03;;;;;;;40.03;14.05;;;9.10;99.90;;;;;;5111964;28;20135;-75
2021/04/30 06:28:29;;;;;;;39.70;13.88;;;9.10;99.90;;;;;;5076889;28;20036;-75
2021/04/30 06:30:56;;;;;;;40.50;15.18;;;9.10;99.90;;;;;;5111433;28;20407;-75
2021/04/30 06:33:23;;;;;;;36.90;14.30;;;9.10;99.90;;;;;;5115452;28;20040;-75
2021/04/30 06:35:49;;;;;;;41.05;14.30;;;9.10;99.90;;;;;;5099775;28;20032;-86
2021/04/30 06:38:14;;;;;;;33.58;13.43;;;9.10;99.90;;;;;;5097963;28;20069;-85
2021/04/30 06:40:41;;;;;;;38.00;15.43;;;9.50;99.90;;;;;;5113266;28;20217;-84
2021/04/30 06:43:10;;;;;;;38.17;14.40;;;9.10;99.90;;;;;;5108160;27;20114;-83
2021/04/30 06:45:36;;;;;;;32.95;13.90;;;9.20;99.90;;;;;;5103847;27;20035;-83
2021/04/30 06:48:02;;;;;;;44.22;14.05;;;9.30;99.90;;;;;;5106327;27;20483;-82
2021/04/30 06:50:28;;;;;;;38.30;13.38;;;9.20;99.90;;;;;;5120445;27;20479;-82
2021/04/30 06:52:53;;;;;;;34.85;14.00;;;9.20;99.90;;;;;;5117579;27;20048;-83
2021/04/30 06:55:19;;;;;;;35.08;13.45;;;9.20;99.90;;;;;;5114251;27;20304;-82
2021/04/30 06:57:45;;;;;;;31.98;13.07;;;9.20;99.90;;;;;;5115404;27;20436;-83
2021/04/30 07:00:14;;;;;;;34.25;12.68;;;9.20;99.90;;;;;;5116631;27;20459;-82
2021/04/30 07:02:40;;;;;;;43.45;14.00;;;9.20;99.90;;;;;;5112235;27;20041;-82
2021/04/30 07:05:06;;;;;;;35.10;12.50;;;9.30;99.90;;;;;;5098227;27;20090;-82
2021/04/30 07:07:34;;;;;;;39.03;14.00;;;9.30;99.90;;;;;;5118120;27;20532;-77
2021/04/30 07:09:59;;;;;;;41.38;14.43;;;9.30;99.90;;;;;;5122870;27;20177;-78
2021/04/30 07:12:25;;;;;;;33.75;13.13;;;9.30;99.90;;;;;;5092121;27;20118;-82
2021/04/30 07:14:51;;;;;;;39.40;13.70;;;9.40;99.90;;;;;;5126685;27;20044;-82
2021/04/30 07:17:17;;;;;;;34.33;13.57;;;9.40;99.90;;;;;;5127692;27;20039;-78
2021/04/30 07:19:43;;;;;;;28.25;12.48;;;9.40;99.90;;;;;;5107790;27;20042;-79
2021/04/30 07:22:13;;;;;;;40.25;14.48;;;9.40;99.90;;;;;;5126016;27;20730;-79
2021/04/30 07:24:40;;;;;;;30.02;13.65;;;9.40;99.90;;;;;;5120992;27;20070;-82
2021/04/30 07:27:08;;;;;;;31.13;13.93;;;9.50;99.90;;;;;;5125483;27;20043;-77
2021/04/30 07:29:34;;;;;;;32.85;13.32;;;9.50;99.90;;;;;;5106910;27;20110;-81
2021/04/30 07:32:01;;;;;;;42.28;13.85;;;9.80;99.90;;;;;;5123820;27;20039;-81
2021/04/30 07:34:27;;;;;;;35.70;14.27;;;9.50;99.90;;;;;;5105803;27;20031;-80
2021/04/30 07:36:53;;;;;;;30.77;13.52;;;9.50;99.90;;;;;;5105781;27;20038;-81
2021/04/30 07:39:19;;;;;;;35.08;13.65;;;9.70;99.90;;;;;;5122890;27;20038;-80
2021/04/30 07:41:45;;;;;;;36.60;14.68;;;9.50;99.90;;;;;;5123147;27;20114;-80
2021/04/30 07:44:10;;;;;;;33.90;15.10;;;10.20;99.90;;;;;;5104638;27;20118;-77
2021/04/30 07:46:37;;;;;;;37.40;14.00;;;9.90;99.90;;;;;;5114934;27;20531;-76
2021/04/30 07:49:07;;;;;;;37.38;14.35;;;9.70;99.90;;;;;;5112556;27;20125;-77
2021/04/30 07:51:33;;;;;;;32.90;14.38;;;9.60;99.90;;;;;;5080510;28;20043;-77
2021/04/30 07:53:59;;;;;;;34.20;14.35;;;9.60;99.90;;;;;;5104468;27;20043;-76
2021/04/30 07:56:25;;;;;;;40.65;16.27;;;9.70;99.90;;;;;;5120763;27;20039;-77
2021/04/30 07:58:51;;;;;;;32.55;14.27;;;9.70;99.90;;;;;;5096181;28;20036;-80
2021/04/30 08:01:18;;;;;;;39.30;14.65;;;9.70;99.90;;;;;;5099538;28;20038;-80
2021/04/30 08:03:46;;;;;;;40.20;14.75;;;9.70;99.90;;;;;;5103503;28;20032;-81
2021/04/30 08:06:12;;;;;;;37.80;15.25;;;9.90;99.90;;;;;;5115962;27;20174;-80
2021/04/30 08:08:39;;;;;;;39.08;14.48;;;9.80;99.90;;;;;;5107824;28;20106;-81
2021/04/30 08:11:05;;;;;;;35.45;14.10;;;9.80;99.90;;;;;;5118012;27;20062;-80
2021/04/30 08:13:33;;;;;;;33.75;13.30;;;9.80;99.90;;;;;;5122125;27;20071;-80
2021/04/30 08:15:59;;;;;;;33.75;13.45;;;9.90;99.90;;;;;;5113426;28;20062;-77
2021/04/30 08:18:25;;;;;;;30.40;13.82;;;9.80;99.90;;;;;;5105713;28;20059;-76
2021/04/30 08:20:50;;;;;;;28.35;13.50;;;9.80;99.90;;;;;;5094940;28;20479;-77
2021/04/30 08:23:16;;;;;;;29.88;13.90;;;9.80;99.90;;;;;;5099213;28;20085;-77
2021/04/30 08:25:42;;;;;;;36.38;14.15;;;9.80;99.90;;;;;;5078119;28;20042;-76
2021/04/30 08:28:08;;;;;;;32.42;14.23;;;9.80;99.90;;;;;;5114696;27;20040;-75
2021/04/30 08:30:34;;;;;;;36.63;13.82;;;9.80;99.90;;;;;;5099577;28;20494;-77
2021/04/30 08:33:03;;;;;;;26.13;13.60;;;9.90;99.90;;;;;;5109201;28;20042;-77
2021/04/30 08:35:30;;;;;;;25.63;13.60;;;9.90;99.90;;;;;;5086478;28;20388;-84
2021/04/30 08:37:56;;;;;;;29.92;12.98;;;9.90;99.90;;;;;;5100581;27;20035;-77
2021/04/30 08:40:22;;;;;;;26.48;12.88;;;10.00;99.90;;;;;;5101324;28;20039;-76
2021/04/30 08:42:51;;;;;;;28.48;12.68;;;9.90;99.90;;;;;;5062305;28;20100;-76
2021/04/30 08:45:18;;;;;;;25.23;12.43;;;9.90;99.90;;;;;;5101018;27;20390;-76
2021/04/30 08:47:47;;;;;;;27.45;12.25;;;9.90;99.90;;;;;;5101301;28;20035;-76
2021/04/30 08:50:14;;;;;;;25.98;12.32;;;9.80;99.90;;;;;;5092814;27;20035;-76
2021/04/30 08:52:41;;;;;;;28.25;12.25;;;9.80;99.90;;;;;;5106028;27;20028;-76
2021/04/30 08:55:11;;;;;;;25.67;11.73;;;9.80;99.90;;;;;;5116932;27;20032;-76
2021/04/30 08:57:46;;;;;;;22.48;12.25;;;9.80;99.90;;;;;;5094117;28;20051;-76
2021/04/30 09:00:25;;;;;;;24.08;12.40;;;9.80;99.90;;;;;;5114693;27;20499;-76
2021/04/30 09:03:04;;;;;;;21.88;12.50;;;9.80;99.90;;;;;;5119558;27;20039;-76
2021/04/30 09:05:35;;;;;;;19.20;10.50;;;9.80;99.90;;;;;;5082373;27;20036;-80
2021/04/30 09:08:06;;;;;;;20.27;11.80;;;9.90;99.90;;;;;;5077619;28;20037;-80
2021/04/30 09:10:49;;;;;;;25.20;12.63;;;9.80;99.90;;;;;;5106810;27;20031;-78
2021/04/30 09:13:18;;;;;;;18.58;11.20;;;10.00;99.90;;;;;;5111425;27;20111;-74
2021/04/30 09:15:46;;;;;;;22.30;11.80;;;9.90;99.90;;;;;;5121010;27;20048;-78
2021/04/30 09:18:20;;;;;;;20.52;11.43;;;9.80;99.90;;;;;;5118415;27;20047;-78
2021/04/30 09:20:49;;;;;;;23.80;12.60;;;10.50;99.90;;;;;;5113744;27;20043;-73
2021/04/30 09:23:48;;;;;;;18.40;11.18;;;9.90;99.90;;;;;;5115325;27;20036;-74
2021/04/30 09:26:32;;;;;;;21.98;11.27;;;10.00;99.90;;;;;;5045780;28;20050;-74
2021/04/30 09:29:10;;;;;;;20.55;11.38;;;10.00;99.90;;;;;;5117160;27;20035;-73
2021/04/30 09:31:40;;;;;;;21.60;11.68;;;10.00;99.90;;;;;;5098336;28;20441;-73
2021/04/30 09:34:18;;;;;;;21.08;11.43;;;10.10;99.90;;;;;;5116875;27;20047;-73
2021/04/30 09:37:00;;;;;;;28.35;12.05;;;10.10;99.90;;;;;;5129745;27;20499;-72
2021/04/30 09:39:26;;;;;;;23.55;12.95;;;10.10;99.90;;;;;;5103817;27;20038;-72
2021/04/30 09:42:07;;;;;;;27.80;12.00;;;10.20;99.90;;;;;;5105038;27;20031;-73
2021/04/30 09:44:42;;;;;;;20.63;11.85;;;10.20;99.90;;;;;;5105174;27;20475;-77
2021/04/30 09:47:15;;;;;;;21.50;11.60;;;10.20;99.90;;;;;;5105341;27;20042;-78
2021/04/30 09:49:43;;;;;;;17.70;10.93;;;10.20;99.90;;;;;;5103806;27;20031;-77
2021/04/30 09:52:09;;;;;;;20.23;11.75;;;10.20;99.90;;;;;;5121321;27;20043;-76
2021/04/30 09:54:41;;;;;;;17.15;10.70;;;10.20;99.90;;;;;;5103973;28;20492;-78
2021/04/30 09:57:15;;;;;;;19.83;12.23;;;10.10;99.90;;;;;;5098021;28;20044;-77
2021/04/30 09:59:54;;;;;;;21.15;12.27;;;10.10;99.90;;;;;;5100675;28;20431;-77
2021/04/30 10:02:25;;;;;;;22.52;11.55;;;10.20;99.90;;;;;;5094666;28;20028;-78
2021/04/30 10:04:53;;;;;;;19.08;10.73;;;10.20;99.90;;;;;;5083792;28;20062;-77
2021/04/30 10:07:29;;;;;;;17.95;10.68;;;10.20;99.90;;;;;;5101838;28;20464;-77
2021/04/30 10:10:14;;;;;;;19.38;11.23;;;10.30;99.90;;;;;;5100958;28;20043;-76
2021/04/30 10:12:47;;;;;;;15.15;10.50;;;10.30;99.90;;;;;;5081801;28;20032;-79
2021/04/30 10:15:19;;;;;;;22.42;10.73;;;10.30;99.90;;;;;;5098540;27;20036;-80
2021/04/30 10:17:49;;;;;;;15.77;10.48;;;10.30;99.90;;;;;;5089160;27;20055;-80
2021/04/30 10:20:18;;;;;;;13.73;10.60;;;10.20;99.90;;;;;;5116742;27;20036;-79
2021/04/30 10:22:47;;;;;;;19.60;11.18;;;10.30;99.90;;;;;;5113744;28;20430;-75
2021/04/30 10:25:22;;;;;;;17.38;10.57;;;10.30;99.90;;;;;;5109272;28;20040;-77
2021/04/30 10:27:54;;;;;;;17.40;11.82;;;10.30;99.90;;;;;;5097660;28;20048;-77
2021/04/30 10:30:49;;;;;;;23.52;12.38;;;10.50;99.90;;;;;;5095568;28;20064;-77
2021/04/30 10:33:37;;;;;;;18.60;12.30;;;10.30;99.90;;;;;;5094186;28;20073;-77
2021/04/30 10:36:33;;;;;;;13.30;10.65;;;10.30;99.90;;;;;;5100905;28;20036;-82
2021/04/30 10:39:24;;;;;;;19.92;12.45;;;10.40;99.90;;;;;;5108422;28;20042;-84
2021/04/30 10:41:50;;;;;;;21.02;12.77;;;10.40;99.90;;;;;;5097122;28;20051;-75
2021/04/30 10:44:27;;;;;;;22.38;12.40;;;10.40;99.90;;;;;;5114429;28;20067;-84
2021/04/30 10:47:17;;;;;;;18.67;11.90;;;10.50;99.90;;;;;;5103460;27;20031;-74
2021/04/30 10:49:43;;;;;;;17.73;11.32;;;10.40;99.90;;;;;;5092770;27;20047;-75
2021/04/30 10:52:17;;;;;;;17.13;10.90;;;10.50;99.90;;;;;;5114986;28;20036;-75
2021/04/30 10:54:59;;;;;;;16.15;10.70;;;10.50;99.90;;;;;;5083689;28;20048;-78
2021/04/30 10:57:25;;;;;;;17.88;10.95;;;10.50;99.90;;;;;;5114568;28;20063;-78
2021/04/30 10:59:52;;;;;;;15.32;11.13;;;10.50;99.90;;;;;;5113451;28;20040;-78
2021/04/30 11:02:31;;;;;;;19.98;11.05;;;10.50;99.90;;;;;;5114523;28;20055;-79
2021/04/30 11:05:07;;;;;;;16.63;11.30;;;10.60;99.90;;;;;;5113473;28;20032;-78
2021/04/30 11:07:35;;;;;;;16.25;11.10;;;10.60;99.90;;;;;;5114041;28;20423;-78
2021/04/30 11:10:26;;;;;;;21.58;11.60;;;10.60;99.90;;;;;;5113653;28;20040;-78
2021/04/30 11:12:59;;;;;;;15.10;11.52;;;10.70;99.90;;;;;;5114044;28;20043;-78
2021/04/30 11:15:29;;;;;;;15.85;11.35;;;10.90;99.90;;;;;;5114275;28;20031;-78
2021/04/30 11:18:02;;;;;;;15.50;11.75;;;10.80;99.90;;;;;;5114276;28;20043;-79
2021/04/30 11:20:34;;;;;;;13.93;10.70;;;10.90;99.90;;;;;;5113951;28;20039;-78
2021/04/30 11:23:27;;;;;;;14.35;10.93;;;10.90;99.90;;;;;;5113482;28;20051;-78
2021/04/30 11:28:25;;;;;;;17.10;11.98;;;11.00;99.90;;;;;;5096743;28;20040;-78
2021/04/30 11:31:07;;;;;;;17.08;11.57;;;11.00;99.90;;;;;;5114093;28;20067;-77
2021/04/30 11:34:16;;;;;;;17.33;11.80;;;11.30;99.90;;;;;;5101431;28;20118;-78
2021/04/30 11:36:44;;;;;;;15.38;11.73;;;11.10;99.90;;;;;;5101959;28;20085;-78
2021/04/30 11:39:16;;;;;;;16.38;11.25;;;11.20;99.90;;;;;;5084823;28;20043;-78
2021/04/30 11:41:43;;;;;;;12.85;11.07;;;11.20;99.90;;;;;;5089791;28;20085;-77
2021/04/30 11:44:10;;;;;;;18.48;11.48;;;11.30;99.90;;;;;;5100673;28;20047;-78
2021/04/30 11:46:38;;;;;;;16.30;12.05;;;11.20;99.90;;;;;;5086913;28;20036;-78
2021/04/30 11:49:07;;;;;;;15.07;11.45;;;11.20;99.90;;;;;;5100133;28;20053;-77
2021/04/30 11:51:47;;;;;;;16.60;11.93;;;11.30;99.90;;;;;;5111010;28;20110;-78
2021/04/30 11:54:19;;;;;;;17.73;12.43;;;11.30;99.90;;;;;;5107784;28;20085;-78
2021/04/30 11:56:55;;;;;;;16.95;12.68;;;11.30;99.90;;;;;;5085240;28;20116;-78
2021/04/30 11:59:21;;;;;;;;;;;11.50;99.90;;;;;;5100255;28;20057;-74
2021/04/30 12:01:58;;;;;;;15.95;10.63;;;11.30;99.50;;;;;;5105762;28;19950;-75
2021/04/30 12:04:50;;;;;;;18.40;12.00;;;11.30;99.90;;;;;;5107796;28;20032;-75
2021/04/30 12:07:18;;;;;;;15.55;11.90;;;11.30;99.90;;;;;;5089889;28;20406;-75
2021/04/30 12:09:45;;;;;;;18.95;11.65;;;11.30;99.90;;;;;;5081487;28;20040;-75
2021/04/30 12:12:25;;;;;;;15.60;11.00;;;11.40;99.90;;;;;;5106944;28;20039;-74
2021/04/30 12:14:50;;;;;;;16.23;11.80;;;11.40;99.90;;;;;;5077591;28;20537;-75
2021/04/30 12:17:25;;;;;;;25.58;12.85;;;11.50;99.90;;;;;;5087232;28;20036;-75
2021/04/30 12:20:01;;;;;;;20.02;13.30;;;11.50;99.90;;;;;;5106635;28;20058;-75
2021/04/30 12:22:27;;;;;;;17.67;12.20;;;11.70;99.90;;;;;;5097514;28;20407;-74
2021/04/30 12:25:13;;;;;;;19.15;12.88;;;11.70;99.90;;;;;;5091110;28;20032;-85
2021/04/30 12:27:45;;;;;;;17.08;11.50;;;11.70;99.90;;;;;;5110841;27;20043;-74
2021/04/30 12:30:12;;;;;;;17.60;12.55;;;11.80;99.90;;;;;;5112730;27;20035;-75
2021/04/30 12:32:44;;;;;;;21.40;12.40;;;11.90;99.90;;;;;;5075136;28;20093;-75
2021/04/30 12:35:13;;;;;;;17.73;12.30;;;12.00;99.90;;;;;;5086839;28;20043;-75
2021/04/30 12:37:39;;;;;;;18.20;11.95;;;12.00;99.90;;;;;;5100598;27;20100;-75
2021/04/30 12:40:05;;;;;;;20.73;11.95;;;12.00;99.90;;;;;;5102119;27;20039;-78
2021/04/30 12:42:45;;;;;;;19.48;13.10;;;12.00;99.90;;;;;;5117190;27;20038;-78
2021/04/30 12:45:13;;;;;;;16.23;12.20;;;11.90;97.70;;;;;;5096123;27;20497;-75
2021/04/30 12:47:39;;;;;;;15.15;11.98;;;11.80;99.90;;;;;;5122409;27;20028;-78